Terminal Aerodrome Forecast
Issued by NWS

Current Version | Previous Version | Graphics & Text | Print | Product List | Glossary On
Versions: 1 2 3 4 5 6 7 8 9 10 11 12 13 14 15 16 17 18 19 20 21 22 23 24 25 26 27 28 29
093
FTUS41 KILN 301742
TAFLUK
TAF
KLUK 301742Z 3018/0118 09010KT 2SM SHRA BR OVC018
     FM302100 13010KT 2SM BR VCSH OVC010
     FM010000 17010KT 4SM BR VCTS BKN018CB
      TEMPO 0103/0107 2SM SHRA BR OVC010
     FM010700 18006KT 4SM BR OVC010
     FM011400 24005KT P6SM BKN018=

USA.gov is the U.S. government's official web portal to all federal, state and local government web resources and services.